sensor_id;sensor_type;location;lat;lon;timestamp;P1;durP1;ratioP1;P2;durP2;ratioP2
56102;SDS011;41970;48.774;9.280;2023-08-01T00:02:17;7.00;;;4.57;;
56102;SDS011;41970;48.774;9.280;2023-08-01T00:04:43;6.87;;;3.00;;
56102;SDS011;41970;48.774;9.280;2023-08-01T00:07:08;5.13;;;4.43;;
56102;SDS011;41970;48.774;9.280;2023-08-01T00:09:34;6.10;;;4.10;;
56102;SDS011;41970;48.774;9.280;2023-08-01T00:12:00;4.40;;;3.93;;
56102;SDS011;41970;48.774;9.280;2023-08-01T00:14:26;7.33;;;4.27;;
56102;SDS011;41970;48.774;9.280;2023-08-01T00:16:51;3.57;;;3.27;;
56102;SDS011;41970;48.774;9.280;2023-08-01T00:19:18;4.20;;;3.80;;
56102;SDS011;41970;48.774;9.280;2023-08-01T00:21:44;7.63;;;4.20;;
56102;SDS011;41970;48.774;9.280;2023-08-01T00:24:09;4.80;;;3.80;;
56102;SDS011;41970;48.774;9.280;2023-08-01T00:26:35;6.63;;;3.43;;
56102;SDS011;41970;48.774;9.280;2023-08-01T00:29:01;6.07;;;4.03;;
56102;SDS011;41970;48.774;9.280;2023-08-01T00:31:27;4.30;;;3.83;;
56102;SDS011;41970;48.774;9.280;2023-08-01T00:33:53;5.47;;;4.50;;
56102;SDS011;41970;48.774;9.280;2023-08-01T00:36:18;4.10;;;3.70;;
56102;SDS011;41970;48.774;9.280;2023-08-01T00:38:44;6.17;;;3.83;;
56102;SDS011;41970;48.774;9.280;2023-08-01T00:41:10;4.43;;;3.80;;
56102;SDS011;41970;48.774;9.280;2023-08-01T00:43:38;4.70;;;4.10;;
56102;SDS011;41970;48.774;9.280;2023-08-01T00:46:04;4.50;;;3.97;;
56102;SDS011;41970;48.774;9.280;2023-08-01T00:48:31;4.47;;;4.07;;
56102;SDS011;41970;48.774;9.280;2023-08-01T00:50:57;4.27;;;3.87;;
56102;SDS011;41970;48.774;9.280;2023-08-01T00:53:26;4.83;;;4.13;;
56102;SDS011;41970;48.774;9.280;2023-08-01T00:55:52;4.23;;;3.83;;
56102;SDS011;41970;48.774;9.280;2023-08-01T00:58:19;4.87;;;4.43;;
56102;SDS011;41970;48.774;9.280;2023-08-01T01:00:45;6.03;;;4.10;;
56102;SDS011;41970;48.774;9.280;2023-08-01T01:03:13;4.27;;;3.87;;
56102;SDS011;41970;48.774;9.280;2023-08-01T01:05:41;4.50;;;4.10;;
56102;SDS011;41970;48.774;9.280;2023-08-01T01:08:13;6.10;;;4.77;;
56102;SDS011;41970;48.774;9.280;2023-08-01T01:10:40;6.33;;;4.17;;
56102;SDS011;41970;48.774;9.280;2023-08-01T01:13:06;4.80;;;4.30;;
56102;SDS011;41970;48.774;9.280;2023-08-01T01:15:35;5.53;;;4.10;;
56102;SDS011;41970;48.774;9.280;2023-08-01T01:18:01;3.73;;;3.33;;
56102;SDS011;41970;48.774;9.280;2023-08-01T01:20:30;6.40;;;4.33;;
56102;SDS011;41970;48.774;9.280;2023-08-01T01:22:59;5.33;;;4.33;;
56102;SDS011;41970;48.774;9.280;2023-08-01T01:25:26;5.10;;;3.17;;
56102;SDS011;41970;48.774;9.280;2023-08-01T01:27:53;4.30;;;3.50;;
56102;SDS011;41970;48.774;9.280;2023-08-01T01:30:20;5.43;;;3.50;;
56102;SDS011;41970;48.774;9.280;2023-08-01T01:32:47;3.47;;;3.17;;
56102;SDS011;41970;48.774;9.280;2023-08-01T01:35:14;4.83;;;3.70;;
56102;SDS011;41970;48.774;9.280;2023-08-01T01:37:40;4.50;;;3.60;;
56102;SDS011;41970;48.774;9.280;2023-08-01T01:40:06;4.27;;;3.43;;
56102;SDS011;41970;48.774;9.280;2023-08-01T01:42:32;5.20;;;3.90;;
56102;SDS011;41970;48.774;9.280;2023-08-01T01:44:58;4.70;;;3.47;;
56102;SDS011;41970;48.774;9.280;2023-08-01T01:47:24;7.33;;;4.00;;
56102;SDS011;41970;48.774;9.280;2023-08-01T01:49:49;5.23;;;4.53;;
56102;SDS011;41970;48.774;9.280;2023-08-01T01:52:15;4.83;;;3.40;;
56102;SDS011;41970;48.774;9.280;2023-08-01T01:54:41;8.20;;;4.27;;
56102;SDS011;41970;48.774;9.280;2023-08-01T01:57:07;5.27;;;3.93;;
56102;SDS011;41970;48.774;9.280;2023-08-01T01:59:33;7.90;;;4.20;;
56102;SDS011;41970;48.774;9.280;2023-08-01T02:01:59;3.87;;;3.30;;
56102;SDS011;41970;48.774;9.280;2023-08-01T02:04:25;6.30;;;3.87;;
56102;SDS011;41970;48.774;9.280;2023-08-01T02:06:50;4.57;;;4.13;;
56102;SDS011;41970;48.774;9.280;2023-08-01T02:09:18;6.63;;;4.57;;
56102;SDS011;41970;48.774;9.280;2023-08-01T02:11:44;6.23;;;4.40;;
56102;SDS011;41970;48.774;9.280;2023-08-01T02:14:10;5.30;;;3.67;;
56102;SDS011;41970;48.774;9.280;2023-08-01T02:16:36;8.80;;;4.17;;
56102;SDS011;41970;48.774;9.280;2023-08-01T02:19:01;6.17;;;4.60;;
56102;SDS011;41970;48.774;9.280;2023-08-01T02:21:27;3.57;;;3.27;;
56102;SDS011;41970;48.774;9.280;2023-08-01T02:23:53;3.73;;;3.33;;
56102;SDS011;41970;48.774;9.280;2023-08-01T02:26:19;4.50;;;4.00;;
56102;SDS011;41970;48.774;9.280;2023-08-01T02:28:46;4.47;;;3.73;;
56102;SDS011;41970;48.774;9.280;2023-08-01T02:31:12;4.93;;;3.60;;
56102;SDS011;41970;48.774;9.280;2023-08-01T02:33:38;4.47;;;4.07;;
56102;SDS011;41970;48.774;9.280;2023-08-01T02:36:03;6.00;;;3.80;;
56102;SDS011;41970;48.774;9.280;2023-08-01T02:38:29;4.17;;;3.77;;
56102;SDS011;41970;48.774;9.280;2023-08-01T02:40:55;5.27;;;4.10;;
56102;SDS011;41970;48.774;9.280;2023-08-01T02:43:21;4.83;;;4.33;;
56102;SDS011;41970;48.774;9.280;2023-08-01T02:45:47;5.00;;;4.50;;
56102;SDS011;41970;48.774;9.280;2023-08-01T02:48:13;4.93;;;4.43;;
56102;SDS011;41970;48.774;9.280;2023-08-01T02:50:39;10.10;;;4.60;;
56102;SDS011;41970;48.774;9.280;2023-08-01T02:53:05;4.07;;;3.67;;
56102;SDS011;41970;48.774;9.280;2023-08-01T02:55:31;4.23;;;3.60;;
56102;SDS011;41970;48.774;9.280;2023-08-01T02:57:57;5.83;;;3.87;;
56102;SDS011;41970;48.774;9.280;2023-08-01T03:00:22;5.03;;;3.20;;
56102;SDS011;41970;48.774;9.280;2023-08-01T03:02:48;4.67;;;3.30;;
56102;SDS011;41970;48.774;9.280;2023-08-01T03:05:14;4.23;;;3.83;;
56102;SDS011;41970;48.774;9.280;2023-08-01T03:07:40;6.63;;;3.50;;
56102;SDS011;41970;48.774;9.280;2023-08-01T03:10:06;5.93;;;4.20;;
56102;SDS011;41970;48.774;9.280;2023-08-01T03:12:32;5.90;;;4.43;;
56102;SDS011;41970;48.774;9.280;2023-08-01T03:14:58;8.20;;;4.37;;
56102;SDS011;41970;48.774;9.280;2023-08-01T03:17:24;7.53;;;3.70;;
56102;SDS011;41970;48.774;9.280;2023-08-01T03:19:50;6.30;;;4.63;;
56102;SDS011;41970;48.774;9.280;2023-08-01T03:22:16;6.23;;;4.57;;
56102;SDS011;41970;48.774;9.280;2023-08-01T03:24:41;4.37;;;3.93;;
56102;SDS011;41970;48.774;9.280;2023-08-01T03:27:07;4.13;;;3.70;;
56102;SDS011;41970;48.774;9.280;2023-08-01T03:29:33;4.97;;;3.63;;
56102;SDS011;41970;48.774;9.280;2023-08-01T03:31:59;5.43;;;3.47;;
56102;SDS011;41970;48.774;9.280;2023-08-01T03:34:25;4.90;;;3.30;;
56102;SDS011;41970;48.774;9.280;2023-08-01T03:36:52;4.90;;;3.80;;
56102;SDS011;41970;48.774;9.280;2023-08-01T03:39:18;5.17;;;3.27;;
56102;SDS011;41970;48.774;9.280;2023-08-01T03:41:45;4.60;;;4.10;;
56102;SDS011;41970;48.774;9.280;2023-08-01T03:44:11;4.33;;;3.67;;
56102;SDS011;41970;48.774;9.280;2023-08-01T03:46:36;5.97;;;3.73;;
56102;SDS011;41970;48.774;9.280;2023-08-01T03:49:02;6.20;;;3.77;;
56102;SDS011;41970;48.774;9.280;2023-08-01T03:51:28;5.50;;;3.63;;
56102;SDS011;41970;48.774;9.280;2023-08-01T03:53:54;5.17;;;3.70;;
56102;SDS011;41970;48.774;9.280;2023-08-01T03:56:20;4.30;;;3.70;;
56102;SDS011;41970;48.774;9.280;2023-08-01T03:58:45;5.60;;;3.40;;
56102;SDS011;41970;48.774;9.280;2023-08-01T04:01:11;4.13;;;3.73;;
56102;SDS011;41970;48.774;9.280;2023-08-01T04:03:38;6.20;;;3.97;;
56102;SDS011;41970;48.774;9.280;2023-08-01T04:06:04;3.90;;;3.30;;
56102;SDS011;41970;48.774;9.280;2023-08-01T04:08:30;5.73;;;4.10;;
56102;SDS011;41970;48.774;9.280;2023-08-01T04:10:55;4.57;;;4.07;;
56102;SDS011;41970;48.774;9.280;2023-08-01T04:13:21;5.93;;;3.20;;
56102;SDS011;41970;48.774;9.280;2023-08-01T04:15:47;3.20;;;2.70;;
56102;SDS011;41970;48.774;9.280;2023-08-01T04:18:13;6.00;;;4.00;;
56102;SDS011;41970;48.774;9.280;2023-08-01T04:20:39;5.87;;;3.37;;
56102;SDS011;41970;48.774;9.280;2023-08-01T04:23:05;4.10;;;3.60;;
56102;SDS011;41970;48.774;9.280;2023-08-01T04:25:31;4.27;;;3.50;;
56102;SDS011;41970;48.774;9.280;2023-08-01T04:27:57;4.40;;;3.43;;
56102;SDS011;41970;48.774;9.280;2023-08-01T04:30:23;4.10;;;3.47;;
56102;SDS011;41970;48.774;9.280;2023-08-01T04:32:48;4.73;;;3.53;;
56102;SDS011;41970;48.774;9.280;2023-08-01T04:35:14;5.33;;;3.10;;
56102;SDS011;41970;48.774;9.280;2023-08-01T04:37:40;5.27;;;3.27;;
56102;SDS011;41970;48.774;9.280;2023-08-01T04:40:06;8.50;;;4.40;;
56102;SDS011;41970;48.774;9.280;2023-08-01T04:42:33;5.30;;;3.80;;
56102;SDS011;41970;48.774;9.280;2023-08-01T04:44:58;4.93;;;3.73;;
56102;SDS011;41970;48.774;9.280;2023-08-01T04:47:24;5.10;;;3.80;;
56102;SDS011;41970;48.774;9.280;2023-08-01T04:49:51;3.60;;;2.73;;
56102;SDS011;41970;48.774;9.280;2023-08-01T04:52:17;4.53;;;3.83;;
56102;SDS011;41970;48.774;9.280;2023-08-01T04:54:43;5.27;;;3.23;;
56102;SDS011;41970;48.774;9.280;2023-08-01T04:57:09;4.50;;;3.10;;
56102;SDS011;41970;48.774;9.280;2023-08-01T04:59:35;4.37;;;3.43;;
56102;SDS011;41970;48.774;9.280;2023-08-01T05:02:01;4.10;;;3.67;;
56102;SDS011;41970;48.774;9.280;2023-08-01T05:04:26;4.20;;;3.20;;
56102;SDS011;41970;48.774;9.280;2023-08-01T05:06:52;3.70;;;3.13;;
56102;SDS011;41970;48.774;9.280;2023-08-01T05:09:18;6.10;;;3.73;;
56102;SDS011;41970;48.774;9.280;2023-08-01T05:11:44;4.20;;;2.93;;
56102;SDS011;41970;48.774;9.280;2023-08-01T05:14:10;5.37;;;3.23;;
56102;SDS011;41970;48.774;9.280;2023-08-01T05:16:36;3.37;;;3.07;;
56102;SDS011;41970;48.774;9.280;2023-08-01T05:19:02;5.27;;;3.37;;
56102;SDS011;41970;48.774;9.280;2023-08-01T05:21:27;6.63;;;3.53;;
56102;SDS011;41970;48.774;9.280;2023-08-01T05:23:53;7.07;;;3.80;;
56102;SDS011;41970;48.774;9.280;2023-08-01T05:26:19;5.50;;;3.70;;
56102;SDS011;41970;48.774;9.280;2023-08-01T05:28:45;5.67;;;3.73;;
56102;SDS011;41970;48.774;9.280;2023-08-01T05:31:11;3.87;;;3.03;;
56102;SDS011;41970;48.774;9.280;2023-08-01T05:33:37;3.80;;;3.37;;
56102;SDS011;41970;48.774;9.280;2023-08-01T05:36:02;5.97;;;3.60;;
56102;SDS011;41970;48.774;9.280;2023-08-01T05:38:28;4.10;;;3.40;;
56102;SDS011;41970;48.774;9.280;2023-08-01T05:40:54;11.77;;;4.03;;
56102;SDS011;41970;48.774;9.280;2023-08-01T05:43:20;5.13;;;3.97;;
56102;SDS011;41970;48.774;9.280;2023-08-01T05:45:46;5.40;;;3.63;;
56102;SDS011;41970;48.774;9.280;2023-08-01T05:48:15;5.70;;;4.17;;
56102;SDS011;41970;48.774;9.280;2023-08-01T05:50:41;4.60;;;3.30;;
56102;SDS011;41970;48.774;9.280;2023-08-01T05:53:06;5.33;;;3.37;;
56102;SDS011;41970;48.774;9.280;2023-08-01T05:55:33;5.83;;;4.30;;
56102;SDS011;41970;48.774;9.280;2023-08-01T05:57:59;6.03;;;4.47;;
56102;SDS011;41970;48.774;9.280;2023-08-01T06:00:24;5.37;;;3.30;;
56102;SDS011;41970;48.774;9.280;2023-08-01T06:02:50;5.20;;;3.20;;
56102;SDS011;41970;48.774;9.280;2023-08-01T06:05:16;5.70;;;3.90;;
56102;SDS011;41970;48.774;9.280;2023-08-01T06:07:42;5.90;;;4.50;;
56102;SDS011;41970;48.774;9.280;2023-08-01T06:10:08;6.20;;;5.00;;
56102;SDS011;41970;48.774;9.280;2023-08-01T06:12:34;6.13;;;3.83;;
56102;SDS011;41970;48.774;9.280;2023-08-01T06:15:01;16.80;;;13.30;;
56102;SDS011;41970;48.774;9.280;2023-08-01T06:17:27;7.57;;;5.37;;
56102;SDS011;41970;48.774;9.280;2023-08-01T06:19:53;5.57;;;4.30;;
56102;SDS011;41970;48.774;9.280;2023-08-01T06:22:19;4.23;;;3.80;;
56102;SDS011;41970;48.774;9.280;2023-08-01T06:24:45;4.53;;;3.73;;
56102;SDS011;41970;48.774;9.280;2023-08-01T06:27:11;6.13;;;4.33;;
56102;SDS011;41970;48.774;9.280;2023-08-01T06:29:37;5.80;;;3.70;;
56102;SDS011;41970;48.774;9.280;2023-08-01T06:32:03;4.60;;;4.10;;
56102;SDS011;41970;48.774;9.280;2023-08-01T06:34:29;5.43;;;3.60;;
56102;SDS011;41970;48.774;9.280;2023-08-01T06:36:55;5.23;;;3.90;;
56102;SDS011;41970;48.774;9.280;2023-08-01T06:39:21;7.87;;;6.10;;
56102;SDS011;41970;48.774;9.280;2023-08-01T06:41:47;5.70;;;4.47;;
56102;SDS011;41970;48.774;9.280;2023-08-01T06:44:13;5.70;;;4.40;;
56102;SDS011;41970;48.774;9.280;2023-08-01T06:46:39;6.87;;;4.13;;
56102;SDS011;41970;48.774;9.280;2023-08-01T06:49:04;5.57;;;4.40;;
56102;SDS011;41970;48.774;9.280;2023-08-01T06:51:31;4.40;;;4.00;;
56102;SDS011;41970;48.774;9.280;2023-08-01T06:53:57;5.73;;;4.20;;
56102;SDS011;41970;48.774;9.280;2023-08-01T06:56:23;6.27;;;4.40;;
56102;SDS011;41970;48.774;9.280;2023-08-01T06:58:49;6.00;;;5.17;;
56102;SDS011;41970;48.774;9.280;2023-08-01T07:01:15;5.70;;;4.80;;
56102;SDS011;41970;48.774;9.280;2023-08-01T07:03:41;6.30;;;4.00;;
56102;SDS011;41970;48.774;9.280;2023-08-01T07:06:07;7.87;;;5.40;;
56102;SDS011;41970;48.774;9.280;2023-08-01T07:08:32;8.37;;;5.23;;
56102;SDS011;41970;48.774;9.280;2023-08-01T07:10:58;5.40;;;4.80;;
56102;SDS011;41970;48.774;9.280;2023-08-01T07:13:25;5.53;;;4.57;;
56102;SDS011;41970;48.774;9.280;2023-08-01T07:15:50;7.90;;;4.93;;
56102;SDS011;41970;48.774;9.280;2023-08-01T07:18:16;5.70;;;5.20;;
56102;SDS011;41970;48.774;9.280;2023-08-01T07:20:44;5.50;;;4.90;;
56102;SDS011;41970;48.774;9.280;2023-08-01T07:23:09;6.00;;;5.40;;
56102;SDS011;41970;48.774;9.280;2023-08-01T07:25:35;7.70;;;5.67;;
56102;SDS011;41970;48.774;9.280;2023-08-01T07:28:01;7.37;;;5.33;;
56102;SDS011;41970;48.774;9.280;2023-08-01T07:30:28;7.80;;;4.90;;
56102;SDS011;41970;48.774;9.280;2023-08-01T07:32:53;7.93;;;5.50;;
56102;SDS011;41970;48.774;9.280;2023-08-01T07:35:19;5.70;;;5.20;;
56102;SDS011;41970;48.774;9.280;2023-08-01T07:37:45;6.37;;;5.40;;
56102;SDS011;41970;48.774;9.280;2023-08-01T07:40:11;5.87;;;4.67;;
56102;SDS011;41970;48.774;9.280;2023-08-01T07:42:37;7.40;;;5.13;;
56102;SDS011;41970;48.774;9.280;2023-08-01T07:45:03;6.30;;;4.70;;
56102;SDS011;41970;48.774;9.280;2023-08-01T07:47:29;6.57;;;5.27;;
56102;SDS011;41970;48.774;9.280;2023-08-01T07:49:55;6.10;;;4.77;;
56102;SDS011;41970;48.774;9.280;2023-08-01T07:52:21;6.27;;;5.57;;
56102;SDS011;41970;48.774;9.280;2023-08-01T07:54:47;5.60;;;4.47;;
56102;SDS011;41970;48.774;9.280;2023-08-01T07:57:13;4.33;;;3.77;;
56102;SDS011;41970;48.774;9.280;2023-08-01T07:59:38;6.10;;;4.33;;
56102;SDS011;41970;48.774;9.280;2023-08-01T08:02:04;4.73;;;4.23;;
56102;SDS011;41970;48.774;9.280;2023-08-01T08:04:30;4.80;;;4.40;;
56102;SDS011;41970;48.774;9.280;2023-08-01T08:06:56;6.00;;;4.10;;
56102;SDS011;41970;48.774;9.280;2023-08-01T08:09:25;5.57;;;4.27;;
56102;SDS011;41970;48.774;9.280;2023-08-01T08:11:52;5.17;;;3.90;;
56102;SDS011;41970;48.774;9.280;2023-08-01T08:14:17;5.40;;;4.33;;
56102;SDS011;41970;48.774;9.280;2023-08-01T08:16:45;4.17;;;3.73;;
56102;SDS011;41970;48.774;9.280;2023-08-01T08:19:11;4.50;;;3.60;;
56102;SDS011;41970;48.774;9.280;2023-08-01T08:21:37;3.63;;;3.10;;
56102;SDS011;41970;48.774;9.280;2023-08-01T08:24:03;3.53;;;3.23;;
56102;SDS011;41970;48.774;9.280;2023-08-01T08:26:29;3.77;;;3.10;;
56102;SDS011;41970;48.774;9.280;2023-08-01T08:28:56;5.60;;;4.00;;
56102;SDS011;41970;48.774;9.280;2023-08-01T08:31:22;4.17;;;3.73;;
56102;SDS011;41970;48.774;9.280;2023-08-01T08:33:48;4.53;;;3.73;;
56102;SDS011;41970;48.774;9.280;2023-08-01T08:36:14;3.97;;;3.60;;
56102;SDS011;41970;48.774;9.280;2023-08-01T08:38:40;5.00;;;3.53;;
56102;SDS011;41970;48.774;9.280;2023-08-01T08:41:07;4.60;;;3.43;;
56102;SDS011;41970;48.774;9.280;2023-08-01T08:43:35;4.70;;;3.20;;
56102;SDS011;41970;48.774;9.280;2023-08-01T08:46:03;4.60;;;3.27;;
56102;SDS011;41970;48.774;9.280;2023-08-01T08:48:29;4.90;;;4.00;;
56102;SDS011;41970;48.774;9.280;2023-08-01T08:50:59;7.73;;;4.50;;
56102;SDS011;41970;48.774;9.280;2023-08-01T08:53:26;5.77;;;4.63;;
56102;SDS011;41970;48.774;9.280;2023-08-01T08:55:52;4.63;;;3.80;;
56102;SDS011;41970;48.774;9.280;2023-08-01T08:58:20;5.00;;;4.30;;
56102;SDS011;41970;48.774;9.280;2023-08-01T09:00:47;6.07;;;4.07;;
56102;SDS011;41970;48.774;9.280;2023-08-01T09:03:13;4.60;;;3.73;;
56102;SDS011;41970;48.774;9.280;2023-08-01T09:06:23;5.93;;;4.30;;
56102;SDS011;41970;48.774;9.280;2023-08-01T09:08:36;4.30;;;3.90;;
56102;SDS011;41970;48.774;9.280;2023-08-01T09:11:04;4.00;;;3.60;;
56102;SDS011;41970;48.774;9.280;2023-08-01T09:13:30;5.60;;;4.10;;
56102;SDS011;41970;48.774;9.280;2023-08-01T09:15:56;5.47;;;4.23;;
56102;SDS011;41970;48.774;9.280;2023-08-01T09:18:23;4.00;;;2.90;;
56102;SDS011;41970;48.774;9.280;2023-08-01T09:20:49;4.00;;;3.20;;
56102;SDS011;41970;48.774;9.280;2023-08-01T09:23:16;4.07;;;3.07;;
56102;SDS011;41970;48.774;9.280;2023-08-01T09:25:43;4.73;;;2.90;;
56102;SDS011;41970;48.774;9.280;2023-08-01T09:28:22;3.63;;;3.13;;
56102;SDS011;41970;48.774;9.280;2023-08-01T09:30:50;4.57;;;3.07;;
56102;SDS011;41970;48.774;9.280;2023-08-01T09:33:23;5.70;;;2.70;;
56102;SDS011;41970;48.774;9.280;2023-08-01T09:35:50;2.90;;;2.43;;
56102;SDS011;41970;48.774;9.280;2023-08-01T09:38:16;3.43;;;3.13;;
56102;SDS011;41970;48.774;9.280;2023-08-01T09:40:43;5.30;;;2.73;;
56102;SDS011;41970;48.774;9.280;2023-08-01T09:43:10;3.37;;;2.53;;
56102;SDS011;41970;48.774;9.280;2023-08-01T09:45:37;2.33;;;2.10;;
56102;SDS011;41970;48.774;9.280;2023-08-01T09:48:21;2.17;;;1.90;;
56102;SDS011;41970;48.774;9.280;2023-08-01T09:51:13;5.07;;;2.47;;
56102;SDS011;41970;48.774;9.280;2023-08-01T09:53:50;7.23;;;3.00;;
56102;SDS011;41970;48.774;9.280;2023-08-01T09:56:22;2.50;;;2.30;;
56102;SDS011;41970;48.774;9.280;2023-08-01T09:58:50;6.10;;;2.67;;
56102;SDS011;41970;48.774;9.280;2023-08-01T10:01:18;2.77;;;1.80;;
56102;SDS011;41970;48.774;9.280;2023-08-01T10:03:49;2.30;;;1.90;;
56102;SDS011;41970;48.774;9.280;2023-08-01T10:06:17;2.27;;;2.07;;
56102;SDS011;41970;48.774;9.280;2023-08-01T10:08:49;2.60;;;2.00;;
56102;SDS011;41970;48.774;9.280;2023-08-01T10:11:17;2.63;;;2.30;;
56102;SDS011;41970;48.774;9.280;2023-08-01T10:13:44;1.93;;;1.50;;
56102;SDS011;41970;48.774;9.280;2023-08-01T10:16:10;2.30;;;1.77;;
56102;SDS011;41970;48.774;9.280;2023-08-01T10:18:37;1.77;;;1.40;;
56102;SDS011;41970;48.774;9.280;2023-08-01T10:21:07;1.77;;;1.33;;
56102;SDS011;41970;48.774;9.280;2023-08-01T10:23:37;2.87;;;1.50;;
56102;SDS011;41970;48.774;9.280;2023-08-01T10:26:05;2.07;;;1.73;;
56102;SDS011;41970;48.774;9.280;2023-08-01T10:28:34;1.90;;;1.57;;
56102;SDS011;41970;48.774;9.280;2023-08-01T10:31:10;3.20;;;1.67;;
56102;SDS011;41970;48.774;9.280;2023-08-01T10:33:41;1.77;;;1.37;;
56102;SDS011;41970;48.774;9.280;2023-08-01T10:36:21;3.70;;;1.33;;
56102;SDS011;41970;48.774;9.280;2023-08-01T10:38:55;1.50;;;1.33;;
56102;SDS011;41970;48.774;9.280;2023-08-01T10:44:08;2.17;;;1.70;;
56102;SDS011;41970;48.774;9.280;2023-08-01T10:46:57;1.50;;;1.20;;
56102;SDS011;41970;48.774;9.280;2023-08-01T10:49:40;1.63;;;1.30;;
56102;SDS011;41970;48.774;9.280;2023-08-01T10:52:18;1.27;;;1.10;;
56102;SDS011;41970;48.774;9.280;2023-08-01T10:54:55;1.73;;;1.60;;
56102;SDS011;41970;48.774;9.280;2023-08-01T10:57:28;3.10;;;1.30;;
56102;SDS011;41970;48.774;9.280;2023-08-01T10:59:56;3.03;;;2.83;;
56102;SDS011;41970;48.774;9.280;2023-08-01T11:02:23;1.90;;;1.47;;
56102;SDS011;41970;48.774;9.280;2023-08-01T11:05:06;1.67;;;1.20;;
56102;SDS011;41970;48.774;9.280;2023-08-01T11:07:35;2.00;;;1.20;;
56102;SDS011;41970;48.774;9.280;2023-08-01T11:10:02;1.10;;;0.80;;
56102;SDS011;41970;48.774;9.280;2023-08-01T11:12:30;1.47;;;1.13;;
56102;SDS011;41970;48.774;9.280;2023-08-01T11:15:08;1.00;;;0.80;;
56102;SDS011;41970;48.774;9.280;2023-08-01T11:17:38;2.10;;;0.87;;
56102;SDS011;41970;48.774;9.280;2023-08-01T11:20:06;1.80;;;1.03;;
56102;SDS011;41970;48.774;9.280;2023-08-01T11:22:37;1.20;;;1.00;;
56102;SDS011;41970;48.774;9.280;2023-08-01T11:25:13;1.30;;;1.00;;
56102;SDS011;41970;48.774;9.280;2023-08-01T11:27:39;2.13;;;1.23;;
56102;SDS011;41970;48.774;9.280;2023-08-01T11:30:05;1.57;;;1.10;;
56102;SDS011;41970;48.774;9.280;2023-08-01T11:32:32;1.20;;;0.80;;
56102;SDS011;41970;48.774;9.280;2023-08-01T11:35:00;1.20;;;1.00;;
56102;SDS011;41970;48.774;9.280;2023-08-01T11:37:26;1.83;;;1.03;;
56102;SDS011;41970;48.774;9.280;2023-08-01T11:39:54;1.30;;;0.90;;
56102;SDS011;41970;48.774;9.280;2023-08-01T11:42:20;1.50;;;1.27;;
56102;SDS011;41970;48.774;9.280;2023-08-01T11:44:46;1.40;;;1.10;;
56102;SDS011;41970;48.774;9.280;2023-08-01T11:47:15;1.20;;;1.00;;
56102;SDS011;41970;48.774;9.280;2023-08-01T11:49:49;3.33;;;1.40;;
56102;SDS011;41970;48.774;9.280;2023-08-01T11:52:22;1.90;;;1.53;;
56102;SDS011;41970;48.774;9.280;2023-08-01T11:54:52;2.87;;;1.40;;
56102;SDS011;41970;48.774;9.280;2023-08-01T11:57:20;4.90;;;1.30;;
56102;SDS011;41970;48.774;9.280;2023-08-01T11:59:49;2.37;;;1.77;;
56102;SDS011;41970;48.774;9.280;2023-08-01T12:02:20;2.80;;;1.13;;
56102;SDS011;41970;48.774;9.280;2023-08-01T12:04:50;1.90;;;1.07;;
56102;SDS011;41970;48.774;9.280;2023-08-01T12:07:17;2.50;;;1.13;;
56102;SDS011;41970;48.774;9.280;2023-08-01T12:09:44;1.27;;;1.10;;
56102;SDS011;41970;48.774;9.280;2023-08-01T12:12:19;1.50;;;1.20;;
56102;SDS011;41970;48.774;9.280;2023-08-01T12:14:45;1.60;;;1.40;;
56102;SDS011;41970;48.774;9.280;2023-08-01T12:17:11;2.33;;;1.50;;
56102;SDS011;41970;48.774;9.280;2023-08-01T12:19:37;2.40;;;1.20;;
56102;SDS011;41970;48.774;9.280;2023-08-01T12:22:03;1.50;;;1.30;;
56102;SDS011;41970;48.774;9.280;2023-08-01T12:24:29;3.53;;;1.40;;
56102;SDS011;41970;48.774;9.280;2023-08-01T12:26:55;1.37;;;1.00;;
56102;SDS011;41970;48.774;9.280;2023-08-01T12:29:21;2.20;;;1.43;;
56102;SDS011;41970;48.774;9.280;2023-08-01T12:31:47;1.80;;;1.27;;
56102;SDS011;41970;48.774;9.280;2023-08-01T12:34:14;1.67;;;1.23;;
56102;SDS011;41970;48.774;9.280;2023-08-01T12:36:39;1.47;;;1.20;;
56102;SDS011;41970;48.774;9.280;2023-08-01T12:39:05;2.37;;;1.30;;
56102;SDS011;41970;48.774;9.280;2023-08-01T12:41:35;2.37;;;1.73;;
56102;SDS011;41970;48.774;9.280;2023-08-01T12:44:03;1.90;;;1.70;;
56102;SDS011;41970;48.774;9.280;2023-08-01T12:46:29;1.53;;;1.10;;
56102;SDS011;41970;48.774;9.280;2023-08-01T12:48:55;3.43;;;1.20;;
56102;SDS011;41970;48.774;9.280;2023-08-01T12:51:21;2.40;;;1.13;;
56102;SDS011;41970;48.774;9.280;2023-08-01T12:53:47;3.07;;;1.40;;
56102;SDS011;41970;48.774;9.280;2023-08-01T12:56:13;1.40;;;1.30;;
56102;SDS011;41970;48.774;9.280;2023-08-01T12:58:39;1.23;;;1.13;;
56102;SDS011;41970;48.774;9.280;2023-08-01T13:01:05;2.63;;;1.43;;
56102;SDS011;41970;48.774;9.280;2023-08-01T13:03:31;1.63;;;1.23;;
56102;SDS011;41970;48.774;9.280;2023-08-01T13:05:57;2.10;;;1.10;;
56102;SDS011;41970;48.774;9.280;2023-08-01T13:08:23;1.90;;;1.70;;
56102;SDS011;41970;48.774;9.280;2023-08-01T13:10:49;1.80;;;1.50;;
56102;SDS011;41970;48.774;9.280;2023-08-01T13:13:18;1.70;;;1.40;;
56102;SDS011;41970;48.774;9.280;2023-08-01T13:15:44;1.93;;;1.30;;
56102;SDS011;41970;48.774;9.280;2023-08-01T13:18:10;1.50;;;1.27;;
56102;SDS011;41970;48.774;9.280;2023-08-01T13:20:36;2.30;;;1.40;;
56102;SDS011;41970;48.774;9.280;2023-08-01T13:23:02;2.07;;;1.57;;
56102;SDS011;41970;48.774;9.280;2023-08-01T13:25:28;2.30;;;1.50;;
56102;SDS011;41970;48.774;9.280;2023-08-01T13:27:54;2.50;;;1.60;;
56102;SDS011;41970;48.774;9.280;2023-08-01T13:30:20;2.40;;;1.37;;
56102;SDS011;41970;48.774;9.280;2023-08-01T13:32:46;1.57;;;1.40;;
56102;SDS011;41970;48.774;9.280;2023-08-01T13:35:13;1.83;;;1.40;;
56102;SDS011;41970;48.774;9.280;2023-08-01T13:37:39;3.13;;;1.50;;
56102;SDS011;41970;48.774;9.280;2023-08-01T13:40:06;1.77;;;1.37;;
56102;SDS011;41970;48.774;9.280;2023-08-01T13:42:32;3.43;;;1.87;;
56102;SDS011;41970;48.774;9.280;2023-08-01T13:44:58;1.90;;;1.67;;
56102;SDS011;41970;48.774;9.280;2023-08-01T13:47:24;2.57;;;1.70;;
56102;SDS011;41970;48.774;9.280;2023-08-01T13:49:50;2.50;;;2.13;;
56102;SDS011;41970;48.774;9.280;2023-08-01T13:52:16;5.83;;;2.87;;
56102;SDS011;41970;48.774;9.280;2023-08-01T13:54:42;2.13;;;1.83;;
56102;SDS011;41970;48.774;9.280;2023-08-01T13:57:08;2.17;;;1.60;;
56102;SDS011;41970;48.774;9.280;2023-08-01T13:59:34;3.33;;;1.63;;
56102;SDS011;41970;48.774;9.280;2023-08-01T14:02:01;2.33;;;1.50;;
56102;SDS011;41970;48.774;9.280;2023-08-01T14:04:28;1.90;;;1.50;;
56102;SDS011;41970;48.774;9.280;2023-08-01T14:06:54;3.93;;;1.40;;
56102;SDS011;41970;48.774;9.280;2023-08-01T14:09:20;2.30;;;1.40;;
56102;SDS011;41970;48.774;9.280;2023-08-01T14:11:46;1.73;;;1.30;;
56102;SDS011;41970;48.774;9.280;2023-08-01T14:14:12;1.70;;;1.50;;
56102;SDS011;41970;48.774;9.280;2023-08-01T14:16:38;2.17;;;1.60;;
56102;SDS011;41970;48.774;9.280;2023-08-01T14:19:04;2.93;;;1.23;;
56102;SDS011;41970;48.774;9.280;2023-08-01T14:21:31;2.20;;;1.67;;
56102;SDS011;41970;48.774;9.280;2023-08-01T14:23:59;1.30;;;1.13;;
56102;SDS011;41970;48.774;9.280;2023-08-01T14:26:24;2.87;;;1.17;;
56102;SDS011;41970;48.774;9.280;2023-08-01T14:28:50;2.40;;;1.30;;
56102;SDS011;41970;48.774;9.280;2023-08-01T14:31:16;2.20;;;1.50;;
56102;SDS011;41970;48.774;9.280;2023-08-01T14:33:42;2.03;;;1.40;;
56102;SDS011;41970;48.774;9.280;2023-08-01T14:36:08;2.70;;;1.43;;
56102;SDS011;41970;48.774;9.280;2023-08-01T14:38:37;1.60;;;1.30;;
56102;SDS011;41970;48.774;9.280;2023-08-01T14:41:05;2.23;;;1.33;;
56102;SDS011;41970;48.774;9.280;2023-08-01T14:43:31;2.93;;;1.30;;
56102;SDS011;41970;48.774;9.280;2023-08-01T14:45:57;3.63;;;1.40;;
56102;SDS011;41970;48.774;9.280;2023-08-01T14:48:25;2.00;;;1.50;;
56102;SDS011;41970;48.774;9.280;2023-08-01T14:50:51;1.30;;;1.20;;